sensor_id;sensor_type;location;lat;lon;timestamp;temperature;humidity
19365;DHT22;9818;48.382;10.850;2022-12-08T00:01:41;2.10;99.90
19365;DHT22;9818;48.382;10.850;2022-12-08T00:04:09;2.10;99.90
19365;DHT22;9818;48.382;10.850;2022-12-08T00:06:39;2.20;99.90
19365;DHT22;9818;48.382;10.850;2022-12-08T00:09:26;2.10;99.90
19365;DHT22;9818;48.382;10.850;2022-12-08T00:11:57;2.10;99.90
19365;DHT22;9818;48.382;10.850;2022-12-08T00:14:28;2.20;99.90
19365;DHT22;9818;48.382;10.850;2022-12-08T00:16:58;2.10;99.90
19365;DHT22;9818;48.382;10.850;2022-12-08T00:19:28;2.10;99.90
19365;DHT22;9818;48.382;10.850;2022-12-08T00:21:57;2.20;99.90
19365;DHT22;9818;48.382;10.850;2022-12-08T00:24:33;2.20;99.90
19365;DHT22;9818;48.382;10.850;2022-12-08T00:27:04;2.30;99.90
19365;DHT22;9818;48.382;10.850;2022-12-08T00:29:33;2.30;99.90
19365;DHT22;9818;48.382;10.850;2022-12-08T00:32:03;2.30;99.90
19365;DHT22;9818;48.382;10.850;2022-12-08T00:34:32;2.30;99.90
19365;DHT22;9818;48.382;10.850;2022-12-08T00:37:01;2.40;99.90
19365;DHT22;9818;48.382;10.850;2022-12-08T00:39:32;2.40;99.90
19365;DHT22;9818;48.382;10.850;2022-12-08T00:42:01;2.40;99.90
19365;DHT22;9818;48.382;10.850;2022-12-08T00:44:42;2.40;99.90
19365;DHT22;9818;48.382;10.850;2022-12-08T00:47:13;2.40;99.90
19365;DHT22;9818;48.382;10.850;2022-12-08T00:49:41;2.40;99.90
19365;DHT22;9818;48.382;10.850;2022-12-08T00:52:10;2.30;99.90
19365;DHT22;9818;48.382;10.850;2022-12-08T00:54:42;2.30;99.90
19365;DHT22;9818;48.382;10.850;2022-12-08T00:57:10;2.20;99.90
19365;DHT22;9818;48.382;10.850;2022-12-08T00:59:39;2.20;99.90
19365;DHT22;9818;48.382;10.850;2022-12-08T01:02:08;2.10;99.90
19365;DHT22;9818;48.382;10.850;2022-12-08T01:04:37;2.10;99.90
19365;DHT22;9818;48.382;10.850;2022-12-08T01:07:06;2.10;99.90
19365;DHT22;9818;48.382;10.850;2022-12-08T01:21:04;1.90;99.90
19365;DHT22;9818;48.382;10.850;2022-12-08T01:23:33;1.90;99.90
19365;DHT22;9818;48.382;10.850;2022-12-08T01:26:02;1.80;99.90
19365;DHT22;9818;48.382;10.850;2022-12-08T01:28:32;1.80;99.90
19365;DHT22;9818;48.382;10.850;2022-12-08T01:31:01;1.80;99.90
19365;DHT22;9818;48.382;10.850;2022-12-08T01:33:31;1.80;99.90
19365;DHT22;9818;48.382;10.850;2022-12-08T01:36:05;1.80;99.90
19365;DHT22;9818;48.382;10.850;2022-12-08T01:38:34;1.80;99.90
19365;DHT22;9818;48.382;10.850;2022-12-08T01:41:03;1.90;99.90
19365;DHT22;9818;48.382;10.850;2022-12-08T01:43:59;1.90;99.90
19365;DHT22;9818;48.382;10.850;2022-12-08T01:46:30;2.00;99.90
19365;DHT22;9818;48.382;10.850;2022-12-08T01:49:02;1.90;99.90
19365;DHT22;9818;48.382;10.850;2022-12-08T01:51:37;1.90;99.90
19365;DHT22;9818;48.382;10.850;2022-12-08T01:54:09;1.90;99.90
19365;DHT22;9818;48.382;10.850;2022-12-08T01:56:43;1.90;99.90
19365;DHT22;9818;48.382;10.850;2022-12-08T01:59:13;2.00;99.90
19365;DHT22;9818;48.382;10.850;2022-12-08T02:01:42;2.00;99.90
19365;DHT22;9818;48.382;10.850;2022-12-08T02:04:11;2.00;99.90
19365;DHT22;9818;48.382;10.850;2022-12-08T02:06:43;1.90;99.90
19365;DHT22;9818;48.382;10.850;2022-12-08T02:09:13;2.00;99.90
19365;DHT22;9818;48.382;10.850;2022-12-08T02:11:42;2.10;99.90
19365;DHT22;9818;48.382;10.850;2022-12-08T02:14:12;2.10;99.90
19365;DHT22;9818;48.382;10.850;2022-12-08T02:16:47;2.10;99.90
19365;DHT22;9818;48.382;10.850;2022-12-08T02:19:40;2.20;99.90
19365;DHT22;9818;48.382;10.850;2022-12-08T02:22:23;2.20;99.90
19365;DHT22;9818;48.382;10.850;2022-12-08T02:25:01;2.30;99.90
19365;DHT22;9818;48.382;10.850;2022-12-08T02:27:36;2.30;99.90
19365;DHT22;9818;48.382;10.850;2022-12-08T02:30:19;2.20;99.90
19365;DHT22;9818;48.382;10.850;2022-12-08T02:33:20;2.20;99.90
19365;DHT22;9818;48.382;10.850;2022-12-08T02:36:01;2.30;99.90
19365;DHT22;9818;48.382;10.850;2022-12-08T02:38:40;2.20;99.90
19365;DHT22;9818;48.382;10.850;2022-12-08T02:41:19;2.30;99.90
19365;DHT22;9818;48.382;10.850;2022-12-08T02:43:57;2.20;99.90
19365;DHT22;9818;48.382;10.850;2022-12-08T02:46:31;2.20;99.90
19365;DHT22;9818;48.382;10.850;2022-12-08T02:49:01;2.20;99.90
19365;DHT22;9818;48.382;10.850;2022-12-08T02:51:32;2.20;99.90
19365;DHT22;9818;48.382;10.850;2022-12-08T02:54:02;2.30;99.90
19365;DHT22;9818;48.382;10.850;2022-12-08T02:56:51;2.20;99.90
19365;DHT22;9818;48.382;10.850;2022-12-08T02:59:33;2.10;99.90
19365;DHT22;9818;48.382;10.850;2022-12-08T03:02:20;2.10;99.90
19365;DHT22;9818;48.382;10.850;2022-12-08T03:04:58;2.10;99.90
19365;DHT22;9818;48.382;10.850;2022-12-08T03:07:39;2.20;99.90
19365;DHT22;9818;48.382;10.850;2022-12-08T03:10:10;2.10;99.90
19365;DHT22;9818;48.382;10.850;2022-12-08T03:12:43;2.00;99.90
19365;DHT22;9818;48.382;10.850;2022-12-08T03:15:15;1.90;99.90
19365;DHT22;9818;48.382;10.850;2022-12-08T03:17:48;2.00;99.90
19365;DHT22;9818;48.382;10.850;2022-12-08T03:20:20;2.00;99.90
19365;DHT22;9818;48.382;10.850;2022-12-08T03:22:54;2.00;99.90
19365;DHT22;9818;48.382;10.850;2022-12-08T03:25:25;2.00;99.90
19365;DHT22;9818;48.382;10.850;2022-12-08T03:27:54;2.00;99.90
19365;DHT22;9818;48.382;10.850;2022-12-08T03:30:23;2.00;99.90
19365;DHT22;9818;48.382;10.850;2022-12-08T03:32:55;1.90;99.90
19365;DHT22;9818;48.382;10.850;2022-12-08T03:35:30;1.90;99.90
19365;DHT22;9818;48.382;10.850;2022-12-08T03:38:08;1.90;99.90
19365;DHT22;9818;48.382;10.850;2022-12-08T03:40:37;1.90;99.90
19365;DHT22;9818;48.382;10.850;2022-12-08T03:43:06;1.90;99.90
19365;DHT22;9818;48.382;10.850;2022-12-08T03:45:35;1.80;99.90
19365;DHT22;9818;48.382;10.850;2022-12-08T03:48:04;1.70;99.90
19365;DHT22;9818;48.382;10.850;2022-12-08T03:50:32;1.60;99.90
19365;DHT22;9818;48.382;10.850;2022-12-08T03:53:01;1.60;99.90
19365;DHT22;9818;48.382;10.850;2022-12-08T03:55:32;1.60;99.90
19365;DHT22;9818;48.382;10.850;2022-12-08T03:58:01;1.60;99.90
19365;DHT22;9818;48.382;10.850;2022-12-08T04:00:30;1.70;99.90
19365;DHT22;9818;48.382;10.850;2022-12-08T04:02:58;1.70;99.90
19365;DHT22;9818;48.382;10.850;2022-12-08T04:05:31;1.70;99.90
19365;DHT22;9818;48.382;10.850;2022-12-08T04:08:00;1.30;99.90
19365;DHT22;9818;48.382;10.850;2022-12-08T04:10:34;1.30;99.90
19365;DHT22;9818;48.382;10.850;2022-12-08T04:13:03;1.20;99.90
19365;DHT22;9818;48.382;10.850;2022-12-08T04:15:31;1.10;99.90
19365;DHT22;9818;48.382;10.850;2022-12-08T04:18:00;1.20;99.90
19365;DHT22;9818;48.382;10.850;2022-12-08T04:20:29;1.20;99.90
19365;DHT22;9818;48.382;10.850;2022-12-08T04:22:58;1.30;99.90
19365;DHT22;9818;48.382;10.850;2022-12-08T04:25:27;1.30;99.90
19365;DHT22;9818;48.382;10.850;2022-12-08T04:27:58;1.30;99.90
19365;DHT22;9818;48.382;10.850;2022-12-08T04:30:26;1.40;99.90
19365;DHT22;9818;48.382;10.850;2022-12-08T04:32:55;1.40;99.90
19365;DHT22;9818;48.382;10.850;2022-12-08T04:35:24;1.20;99.90
19365;DHT22;9818;48.382;10.850;2022-12-08T04:37:53;1.10;99.90
19365;DHT22;9818;48.382;10.850;2022-12-08T04:40:22;1.20;99.90
19365;DHT22;9818;48.382;10.850;2022-12-08T04:42:51;1.30;99.90
19365;DHT22;9818;48.382;10.850;2022-12-08T04:45:22;1.30;99.90
19365;DHT22;9818;48.382;10.850;2022-12-08T04:47:50;1.30;99.90
19365;DHT22;9818;48.382;10.850;2022-12-08T04:50:19;1.20;99.90
19365;DHT22;9818;48.382;10.850;2022-12-08T04:52:48;1.10;99.90
19365;DHT22;9818;48.382;10.850;2022-12-08T04:55:17;1.00;99.90
19365;DHT22;9818;48.382;10.850;2022-12-08T04:57:45;1.00;99.90
19365;DHT22;9818;48.382;10.850;2022-12-08T05:00:15;0.90;99.90
19365;DHT22;9818;48.382;10.850;2022-12-08T05:02:46;0.90;99.90
19365;DHT22;9818;48.382;10.850;2022-12-08T05:05:15;0.80;99.90
19365;DHT22;9818;48.382;10.850;2022-12-08T05:07:44;0.70;99.90
19365;DHT22;9818;48.382;10.850;2022-12-08T05:10:13;0.70;99.90
19365;DHT22;9818;48.382;10.850;2022-12-08T05:12:41;0.70;99.90
19365;DHT22;9818;48.382;10.850;2022-12-08T05:15:10;0.60;99.90
19365;DHT22;9818;48.382;10.850;2022-12-08T05:17:39;0.60;99.90
19365;DHT22;9818;48.382;10.850;2022-12-08T05:20:11;0.60;99.90
19365;DHT22;9818;48.382;10.850;2022-12-08T05:22:39;0.60;99.90
19365;DHT22;9818;48.382;10.850;2022-12-08T05:25:08;0.60;99.90
19365;DHT22;9818;48.382;10.850;2022-12-08T05:27:37;0.60;99.90
19365;DHT22;9818;48.382;10.850;2022-12-08T05:30:06;0.50;99.90
19365;DHT22;9818;48.382;10.850;2022-12-08T05:32:35;0.40;99.90
19365;DHT22;9818;48.382;10.850;2022-12-08T05:35:04;0.40;99.90
19365;DHT22;9818;48.382;10.850;2022-12-08T05:37:36;0.30;99.90
19365;DHT22;9818;48.382;10.850;2022-12-08T05:40:06;0.30;99.90
19365;DHT22;9818;48.382;10.850;2022-12-08T05:42:35;0.20;99.90
19365;DHT22;9818;48.382;10.850;2022-12-08T05:45:04;0.10;99.90
19365;DHT22;9818;48.382;10.850;2022-12-08T05:47:33;0.00;99.90
19365;DHT22;9818;48.382;10.850;2022-12-08T05:50:02;0.00;99.90
19365;DHT22;9818;48.382;10.850;2022-12-08T05:52:31;-0.10;99.90
19365;DHT22;9818;48.382;10.850;2022-12-08T05:55:03;-0.10;99.90
19365;DHT22;9818;48.382;10.850;2022-12-08T05:57:31;-0.10;99.90
19365;DHT22;9818;48.382;10.850;2022-12-08T06:00:00;0.00;99.90
19365;DHT22;9818;48.382;10.850;2022-12-08T06:02:29;-0.20;99.90
19365;DHT22;9818;48.382;10.850;2022-12-08T06:04:58;-0.20;99.90
19365;DHT22;9818;48.382;10.850;2022-12-08T06:07:27;-0.30;99.90
19365;DHT22;9818;48.382;10.850;2022-12-08T06:09:55;-0.30;99.90
19365;DHT22;9818;48.382;10.850;2022-12-08T06:12:27;-0.30;99.90
19365;DHT22;9818;48.382;10.850;2022-12-08T06:14:55;-0.20;99.90
19365;DHT22;9818;48.382;10.850;2022-12-08T06:17:24;-0.20;99.90
19365;DHT22;9818;48.382;10.850;2022-12-08T06:19:53;-0.10;99.90
19365;DHT22;9818;48.382;10.850;2022-12-08T06:22:21;-0.10;99.90
19365;DHT22;9818;48.382;10.850;2022-12-08T06:24:50;-0.10;99.90
19365;DHT22;9818;48.382;10.850;2022-12-08T06:27:19;0.00;99.90
19365;DHT22;9818;48.382;10.850;2022-12-08T06:29:50;0.00;99.90
19365;DHT22;9818;48.382;10.850;2022-12-08T06:32:19;0.00;99.90
19365;DHT22;9818;48.382;10.850;2022-12-08T06:34:47;0.10;99.90
19365;DHT22;9818;48.382;10.850;2022-12-08T06:37:16;0.20;99.90
19365;DHT22;9818;48.382;10.850;2022-12-08T06:39:45;0.20;99.90
19365;DHT22;9818;48.382;10.850;2022-12-08T06:42:14;0.20;99.90
19365;DHT22;9818;48.382;10.850;2022-12-08T06:45:10;0.20;99.90
19365;DHT22;9818;48.382;10.850;2022-12-08T06:47:39;0.30;99.90
19365;DHT22;9818;48.382;10.850;2022-12-08T06:50:09;0.30;99.90
19365;DHT22;9818;48.382;10.850;2022-12-08T06:52:38;0.30;99.90
19365;DHT22;9818;48.382;10.850;2022-12-08T06:55:08;0.40;99.90
19365;DHT22;9818;48.382;10.850;2022-12-08T06:57:37;0.50;99.90
19365;DHT22;9818;48.382;10.850;2022-12-08T07:00:10;0.50;99.90
19365;DHT22;9818;48.382;10.850;2022-12-08T07:02:41;0.60;99.90
19365;DHT22;9818;48.382;10.850;2022-12-08T07:05:09;0.60;99.90
19365;DHT22;9818;48.382;10.850;2022-12-08T07:07:38;0.70;99.90
19365;DHT22;9818;48.382;10.850;2022-12-08T07:10:07;0.70;99.90
19365;DHT22;9818;48.382;10.850;2022-12-08T07:12:36;0.70;99.90
19365;DHT22;9818;48.382;10.850;2022-12-08T07:15:07;0.80;99.90
19365;DHT22;9818;48.382;10.850;2022-12-08T07:17:38;0.80;99.90
19365;DHT22;9818;48.382;10.850;2022-12-08T07:20:07;0.90;99.90
19365;DHT22;9818;48.382;10.850;2022-12-08T07:22:36;1.00;99.90
19365;DHT22;9818;48.382;10.850;2022-12-08T07:25:06;1.00;99.90
19365;DHT22;9818;48.382;10.850;2022-12-08T07:27:34;1.10;99.90
19365;DHT22;9818;48.382;10.850;2022-12-08T07:30:04;1.10;99.90
19365;DHT22;9818;48.382;10.850;2022-12-08T07:32:33;1.10;99.90
19365;DHT22;9818;48.382;10.850;2022-12-08T07:35:05;1.10;99.90
19365;DHT22;9818;48.382;10.850;2022-12-08T07:37:35;1.20;99.90
19365;DHT22;9818;48.382;10.850;2022-12-08T07:40:05;1.20;99.90
19365;DHT22;9818;48.382;10.850;2022-12-08T07:42:34;1.30;99.90
19365;DHT22;9818;48.382;10.850;2022-12-08T07:45:03;1.40;99.90
19365;DHT22;9818;48.382;10.850;2022-12-08T07:47:32;1.50;99.90
19365;DHT22;9818;48.382;10.850;2022-12-08T07:50:00;1.60;99.90
19365;DHT22;9818;48.382;10.850;2022-12-08T07:52:33;1.60;99.90
19365;DHT22;9818;48.382;10.850;2022-12-08T07:55:01;1.70;99.90
19365;DHT22;9818;48.382;10.850;2022-12-08T07:57:30;1.60;99.90
19365;DHT22;9818;48.382;10.850;2022-12-08T07:59:59;1.50;99.90
19365;DHT22;9818;48.382;10.850;2022-12-08T08:02:28;1.60;99.90
19365;DHT22;9818;48.382;10.850;2022-12-08T08:04:56;1.80;99.90
19365;DHT22;9818;48.382;10.850;2022-12-08T08:07:25;1.90;99.90
19365;DHT22;9818;48.382;10.850;2022-12-08T08:09:56;2.00;99.90
19365;DHT22;9818;48.382;10.850;2022-12-08T08:12:25;2.00;99.90
19365;DHT22;9818;48.382;10.850;2022-12-08T08:14:54;1.90;99.90
19365;DHT22;9818;48.382;10.850;2022-12-08T08:17:22;2.20;99.90
19365;DHT22;9818;48.382;10.850;2022-12-08T08:19:51;2.30;99.90
19365;DHT22;9818;48.382;10.850;2022-12-08T08:22:20;2.30;99.90
19365;DHT22;9818;48.382;10.850;2022-12-08T08:24:48;2.40;99.90
19365;DHT22;9818;48.382;10.850;2022-12-08T08:27:20;2.40;99.90
19365;DHT22;9818;48.382;10.850;2022-12-08T08:29:49;2.30;99.90
19365;DHT22;9818;48.382;10.850;2022-12-08T08:32:18;2.20;99.90
19365;DHT22;9818;48.382;10.850;2022-12-08T08:34:47;2.00;99.90
19365;DHT22;9818;48.382;10.850;2022-12-08T08:37:15;1.90;99.90
19365;DHT22;9818;48.382;10.850;2022-12-08T08:39:44;1.70;99.90
19365;DHT22;9818;48.382;10.850;2022-12-08T08:42:12;2.00;99.90
19365;DHT22;9818;48.382;10.850;2022-12-08T08:44:44;2.10;99.90
19365;DHT22;9818;48.382;10.850;2022-12-08T08:47:13;2.00;99.90
19365;DHT22;9818;48.382;10.850;2022-12-08T08:49:41;1.90;99.90
19365;DHT22;9818;48.382;10.850;2022-12-08T08:52:11;2.00;99.90
19365;DHT22;9818;48.382;10.850;2022-12-08T08:54:40;2.10;99.90
19365;DHT22;9818;48.382;10.850;2022-12-08T08:57:09;2.20;99.90
19365;DHT22;9818;48.382;10.850;2022-12-08T08:59:37;2.10;99.90
19365;DHT22;9818;48.382;10.850;2022-12-08T09:02:11;1.80;99.90
19365;DHT22;9818;48.382;10.850;2022-12-08T09:04:43;1.80;99.90
19365;DHT22;9818;48.382;10.850;2022-12-08T09:07:12;1.80;99.90
19365;DHT22;9818;48.382;10.850;2022-12-08T09:09:41;2.10;99.90
19365;DHT22;9818;48.382;10.850;2022-12-08T09:12:10;2.30;99.90
19365;DHT22;9818;48.382;10.850;2022-12-08T09:14:39;2.30;99.90
19365;DHT22;9818;48.382;10.850;2022-12-08T09:17:10;2.20;99.90
19365;DHT22;9818;48.382;10.850;2022-12-08T09:19:39;1.80;99.90
19365;DHT22;9818;48.382;10.850;2022-12-08T09:22:08;2.10;99.90
19365;DHT22;9818;48.382;10.850;2022-12-08T09:24:36;2.40;99.90
19365;DHT22;9818;48.382;10.850;2022-12-08T09:27:05;2.30;99.90
19365;DHT22;9818;48.382;10.850;2022-12-08T09:29:34;2.00;99.90
19365;DHT22;9818;48.382;10.850;2022-12-08T09:32:03;2.30;99.90
19365;DHT22;9818;48.382;10.850;2022-12-08T09:34:34;2.10;99.90
19365;DHT22;9818;48.382;10.850;2022-12-08T09:37:02;2.60;99.90
19365;DHT22;9818;48.382;10.850;2022-12-08T09:39:31;2.90;99.90
19365;DHT22;9818;48.382;10.850;2022-12-08T09:42:02;2.80;99.90
19365;DHT22;9818;48.382;10.850;2022-12-08T09:44:45;2.90;99.90
19365;DHT22;9818;48.382;10.850;2022-12-08T09:47:20;3.20;99.90
19365;DHT22;9818;48.382;10.850;2022-12-08T09:49:58;3.20;99.90
19365;DHT22;9818;48.382;10.850;2022-12-08T09:52:32;3.10;99.90
19365;DHT22;9818;48.382;10.850;2022-12-08T09:55:08;3.00;99.90
19365;DHT22;9818;48.382;10.850;2022-12-08T09:57:39;2.90;99.90
19365;DHT22;9818;48.382;10.850;2022-12-08T10:00:13;2.90;99.90
19365;DHT22;9818;48.382;10.850;2022-12-08T10:02:43;3.00;99.90
19365;DHT22;9818;48.382;10.850;2022-12-08T10:05:15;3.00;99.90
19365;DHT22;9818;48.382;10.850;2022-12-08T10:07:48;3.00;99.90
19365;DHT22;9818;48.382;10.850;2022-12-08T10:10:28;2.70;99.90
19365;DHT22;9818;48.382;10.850;2022-12-08T10:13:06;2.70;99.90
19365;DHT22;9818;48.382;10.850;2022-12-08T10:15:43;2.70;99.90
19365;DHT22;9818;48.382;10.850;2022-12-08T10:18:16;3.10;99.90
19365;DHT22;9818;48.382;10.850;2022-12-08T10:20:48;3.30;99.90
19365;DHT22;9818;48.382;10.850;2022-12-08T10:23:24;3.20;99.90
19365;DHT22;9818;48.382;10.850;2022-12-08T10:26:00;3.00;99.90
19365;DHT22;9818;48.382;10.850;2022-12-08T10:28:31;3.00;99.90
19365;DHT22;9818;48.382;10.850;2022-12-08T10:31:00;3.20;99.90
19365;DHT22;9818;48.382;10.850;2022-12-08T10:33:30;3.60;99.90
19365;DHT22;9818;48.382;10.850;2022-12-08T10:36:01;3.90;99.90
19365;DHT22;9818;48.382;10.850;2022-12-08T10:38:31;3.40;99.90
19365;DHT22;9818;48.382;10.850;2022-12-08T10:41:00;2.70;99.90
19365;DHT22;9818;48.382;10.850;2022-12-08T10:43:30;2.70;99.90
19365;DHT22;9818;48.382;10.850;2022-12-08T10:46:09;3.20;99.90
19365;DHT22;9818;48.382;10.850;2022-12-08T10:48:45;3.60;99.90
19365;DHT22;9818;48.382;10.850;2022-12-08T10:51:24;3.70;99.90
19365;DHT22;9818;48.382;10.850;2022-12-08T10:53:54;3.40;99.90
19365;DHT22;9818;48.382;10.850;2022-12-08T10:56:26;3.10;99.90
19365;DHT22;9818;48.382;10.850;2022-12-08T11:01:39;3.30;99.90
19365;DHT22;9818;48.382;10.850;2022-12-08T11:04:10;3.40;99.90
19365;DHT22;9818;48.382;10.850;2022-12-08T11:06:43;3.40;99.90
19365;DHT22;9818;48.382;10.850;2022-12-08T11:09:30;3.60;99.90
19365;DHT22;9818;48.382;10.850;2022-12-08T11:12:05;4.10;99.90
19365;DHT22;9818;48.382;10.850;2022-12-08T11:14:36;4.00;99.90
19365;DHT22;9818;48.382;10.850;2022-12-08T11:17:12;3.80;99.90
19365;DHT22;9818;48.382;10.850;2022-12-08T11:19:42;3.70;99.90
19365;DHT22;9818;48.382;10.850;2022-12-08T11:22:24;3.70;99.90
19365;DHT22;9818;48.382;10.850;2022-12-08T11:24:57;3.30;99.90
19365;DHT22;9818;48.382;10.850;2022-12-08T11:27:25;3.60;99.90
19365;DHT22;9818;48.382;10.850;2022-12-08T11:29:54;3.30;99.90
19365;DHT22;9818;48.382;10.850;2022-12-08T11:32:22;3.10;99.90
19365;DHT22;9818;48.382;10.850;2022-12-08T11:34:52;3.50;99.90
19365;DHT22;9818;48.382;10.850;2022-12-08T11:37:27;3.50;99.90
19365;DHT22;9818;48.382;10.850;2022-12-08T11:39:57;3.40;99.90
19365;DHT22;9818;48.382;10.850;2022-12-08T11:42:28;3.60;99.90
19365;DHT22;9818;48.382;10.850;2022-12-08T11:44:58;3.40;99.90
19365;DHT22;9818;48.382;10.850;2022-12-08T11:47:29;3.30;99.90
19365;DHT22;9818;48.382;10.850;2022-12-08T11:50:00;3.70;99.90
19365;DHT22;9818;48.382;10.850;2022-12-08T11:52:32;3.60;99.90
19365;DHT22;9818;48.382;10.850;2022-12-08T11:55:15;3.50;99.90
19365;DHT22;9818;48.382;10.850;2022-12-08T11:57:45;3.70;99.90
19365;DHT22;9818;48.382;10.850;2022-12-08T12:00:14;4.10;99.90
19365;DHT22;9818;48.382;10.850;2022-12-08T12:02:43;3.90;99.90
19365;DHT22;9818;48.382;10.850;2022-12-08T12:05:19;3.70;99.90
19365;DHT22;9818;48.382;10.850;2022-12-08T12:07:58;4.10;99.90
19365;DHT22;9818;48.382;10.850;2022-12-08T12:10:35;4.40;99.90
19365;DHT22;9818;48.382;10.850;2022-12-08T12:13:07;4.10;99.90
19365;DHT22;9818;48.382;10.850;2022-12-08T12:18:33;5.00;99.90
19365;DHT22;9818;48.382;10.850;2022-12-08T12:21:05;5.30;99.90
19365;DHT22;9818;48.382;10.850;2022-12-08T12:23:38;5.00;99.90
19365;DHT22;9818;48.382;10.850;2022-12-08T12:26:07;5.10;99.90
19365;DHT22;9818;48.382;10.850;2022-12-08T12:28:39;4.50;99.90
19365;DHT22;9818;48.382;10.850;2022-12-08T12:31:09;4.50;99.90
19365;DHT22;9818;48.382;10.850;2022-12-08T12:33:39;4.30;99.90
19365;DHT22;9818;48.382;10.850;2022-12-08T12:36:09;4.50;99.90
19365;DHT22;9818;48.382;10.850;2022-12-08T12:38:42;4.80;99.90
19365;DHT22;9818;48.382;10.850;2022-12-08T12:41:24;4.30;99.90
19365;DHT22;9818;48.382;10.850;2022-12-08T12:44:06;3.80;99.90
19365;DHT22;9818;48.382;10.850;2022-12-08T12:46:40;3.90;99.90
19365;DHT22;9818;48.382;10.850;2022-12-08T12:51:53;4.20;99.90
19365;DHT22;9818;48.382;10.850;2022-12-08T12:54:24;4.20;99.90
19365;DHT22;9818;48.382;10.850;2022-12-08T12:56:53;4.50;99.90
19365;DHT22;9818;48.382;10.850;2022-12-08T12:59:39;4.30;99.90
19365;DHT22;9818;48.382;10.850;2022-12-08T13:02:14;4.10;99.90
19365;DHT22;9818;48.382;10.850;2022-12-08T13:04:43;4.20;99.90
19365;DHT22;9818;48.382;10.850;2022-12-08T13:07:19;3.80;99.90
19365;DHT22;9818;48.382;10.850;2022-12-08T13:09:54;3.30;99.90
19365;DHT22;9818;48.382;10.850;2022-12-08T13:12:24;3.10;99.90
19365;DHT22;9818;48.382;10.850;2022-12-08T13:14:53;3.20;99.90
19365;DHT22;9818;48.382;10.850;2022-12-08T13:17:24;3.10;99.90
19365;DHT22;9818;48.382;10.850;2022-12-08T13:19:55;3.10;99.90
19365;DHT22;9818;48.382;10.850;2022-12-08T13:27:53;3.20;99.90
19365;DHT22;9818;48.382;10.850;2022-12-08T13:30:40;3.10;99.90
19365;DHT22;9818;48.382;10.850;2022-12-08T13:33:14;3.10;99.90
19365;DHT22;9818;48.382;10.850;2022-12-08T13:35:46;3.10;99.90
19365;DHT22;9818;48.382;10.850;2022-12-08T13:38:16;3.50;99.90
19365;DHT22;9818;48.382;10.850;2022-12-08T13:40:46;3.50;99.90
19365;DHT22;9818;48.382;10.850;2022-12-08T13:43:18;3.50;99.90
19365;DHT22;9818;48.382;10.850;2022-12-08T13:45:51;3.40;99.90
19365;DHT22;9818;48.382;10.850;2022-12-08T13:48:21;3.20;99.90
19365;DHT22;9818;48.382;10.850;2022-12-08T13:50:53;3.10;99.90
19365;DHT22;9818;48.382;10.850;2022-12-08T13:53:23;3.30;99.90
19365;DHT22;9818;48.382;10.850;2022-12-08T13:55:54;3.50;99.90
19365;DHT22;9818;48.382;10.850;2022-12-08T13:58:29;3.30;99.90
19365;DHT22;9818;48.382;10.850;2022-12-08T14:01:00;3.40;99.90
19365;DHT22;9818;48.382;10.850;2022-12-08T14:03:30;3.70;99.90
19365;DHT22;9818;48.382;10.850;2022-12-08T14:05:58;3.80;99.90
19365;DHT22;9818;48.382;10.850;2022-12-08T14:08:29;3.70;99.90
19365;DHT22;9818;48.382;10.850;2022-12-08T14:10:59;3.50;99.90
19365;DHT22;9818;48.382;10.850;2022-12-08T14:13:32;3.60;99.90
19365;DHT22;9818;48.382;10.850;2022-12-08T14:16:00;3.60;99.90
19365;DHT22;9818;48.382;10.850;2022-12-08T14:18:30;3.50;99.90
19365;DHT22;9818;48.382;10.850;2022-12-08T14:20:59;3.40;99.90
19365;DHT22;9818;48.382;10.850;2022-12-08T14:23:28;3.50;99.90
19365;DHT22;9818;48.382;10.850;2022-12-08T14:25:56;3.70;99.90
19365;DHT22;9818;48.382;10.850;2022-12-08T14:28:24;3.60;99.90
19365;DHT22;9818;48.382;10.850;2022-12-08T14:30:56;3.40;99.90
19365;DHT22;9818;48.382;10.850;2022-12-08T14:33:24;3.40;99.90
19365;DHT22;9818;48.382;10.850;2022-12-08T14:35:54;3.60;99.90
19365;DHT22;9818;48.382;10.850;2022-12-08T14:38:23;3.70;99.90
19365;DHT22;9818;48.382;10.850;2022-12-08T14:40:59;3.80;99.90
19365;DHT22;9818;48.382;10.850;2022-12-08T14:43:28;3.80;99.90
19365;DHT22;9818;48.382;10.850;2022-12-08T14:46:00;3.70;99.90
19365;DHT22;9818;48.382;10.850;2022-12-08T14:48:38;3.60;99.90
19365;DHT22;9818;48.382;10.850;2022-12-08T14:51:12;3.40;99.90
19365;DHT22;9818;48.382;10.850;2022-12-08T14:53:42;3.30;99.90
19365;DHT22;9818;48.382;10.850;2022-12-08T14:56:14;3.10;99.90
19365;DHT22;9818;48.382;10.850;2022-12-08T14:58:44;3.10;99.90
19365;DHT22;9818;48.382;10.850;2022-12-08T15:01:17;3.30;99.90
19365;DHT22;9818;48.382;10.850;2022-12-08T15:03:48;3.40;99.90
19365;DHT22;9818;48.382;10.850;2022-12-08T15:06:19;3.40;99.90
19365;DHT22;9818;48.382;10.850;2022-12-08T15:08:52;3.40;99.90
19365;DHT22;9818;48.382;10.850;2022-12-08T15:11:30;3.30;99.90
19365;DHT22;9818;48.382;10.850;2022-12-08T15:13:58;3.40;99.90
19365;DHT22;9818;48.382;10.850;2022-12-08T15:16:36;3.30;99.90
19365;DHT22;9818;48.382;10.850;2022-12-08T15:19:13;3.00;99.90
19365;DHT22;9818;48.382;10.850;2022-12-08T15:21:42;3.00;99.90
19365;DHT22;9818;48.382;10.850;2022-12-08T15:24:11;3.10;99.90
19365;DHT22;9818;48.382;10.850;2022-12-08T15:26:42;3.00;99.90
19365;DHT22;9818;48.382;10.850;2022-12-08T15:29:12;3.10;99.90
19365;DHT22;9818;48.382;10.850;2022-12-08T15:31:43;3.10;99.90
19365;DHT22;9818;48.382;10.850;2022-12-08T15:34:12;3.10;99.90
19365;DHT22;9818;48.382;10.850;2022-12-08T15:36:40;3.20;99.90
19365;DHT22;9818;48.382;10.850;2022-12-08T15:39:18;3.20;99.90
19365;DHT22;9818;48.382;10.850;2022-12-08T15:41:47;3.10;99.90
19365;DHT22;9818;48.382;10.850;2022-12-08T15:44:15;3.10;99.90
19365;DHT22;9818;48.382;10.850;2022-12-08T15:46:46;3.00;99.90
19365;DHT22;9818;48.382;10.850;2022-12-08T15:49:16;3.00;99.90
19365;DHT22;9818;48.382;10.850;2022-12-08T15:51:44;3.00;99.90
19365;DHT22;9818;48.382;10.850;2022-12-08T15:54:13;2.90;99.90
19365;DHT22;9818;48.382;10.850;2022-12-08T15:56:43;2.90;99.90
19365;DHT22;9818;48.382;10.850;2022-12-08T15:59:13;3.00;99.90
19365;DHT22;9818;48.382;10.850;2022-12-08T16:01:42;3.00;99.90
19365;DHT22;9818;48.382;10.850;2022-12-08T16:04:14;3.10;99.90
19365;DHT22;9818;48.382;10.850;2022-12-08T16:06:43;3.00;99.90
19365;DHT22;9818;48.382;10.850;2022-12-08T16:09:13;3.00;99.90
19365;DHT22;9818;48.382;10.850;2022-12-08T16:11:42;2.90;99.90
19365;DHT22;9818;48.382;10.850;2022-12-08T16:14:23;3.00;99.90
19365;DHT22;9818;48.382;10.850;2022-12-08T16:16:51;3.00;99.90
19365;DHT22;9818;48.382;10.850;2022-12-08T16:19:22;3.10;99.90
19365;DHT22;9818;48.382;10.850;2022-12-08T16:21:51;3.10;99.90
19365;DHT22;9818;48.382;10.850;2022-12-08T16:24:19;3.00;99.90
19365;DHT22;9818;48.382;10.850;2022-12-08T16:26:47;3.00;99.90
19365;DHT22;9818;48.382;10.850;2022-12-08T16:29:19;3.00;99.90
19365;DHT22;9818;48.382;10.850;2022-12-08T16:31:48;3.00;99.90
19365;DHT22;9818;48.382;10.850;2022-12-08T16:34:17;3.00;99.90
19365;DHT22;9818;48.382;10.850;2022-12-08T16:36:48;3.00;99.90